This is the latest recevied weather packets stored in our database for station/object DJ9MA-10. If no packets are shown the sender has not sent any weather packets the latest 10 day(s).
| Time | Temp. | Humidity | Pressure | Rain* | Wind** | Luminosity | Snow |
|---|---|---|---|---|---|---|---|
| 1777477427 | 19.44° C | 38% | 968.3 hPa | - | - | - | - |
| 1777476528 | 20° C | 37% | 968.1 hPa | - | - | - | - |
| 1777475627 | 20° C | 37% | 968.2 hPa | - | - | - | - |
| 1777474727 | 20.56° C | 37% | 968 hPa | - | - | - | - |
| 1777473827 | 20.56° C | 39% | 968 hPa | - | - | - | - |
| 1777472927 | 20.56° C | 40% | 968 hPa | - | - | - | - |
| 1777472027 | 20.56° C | 41% | 968.1 hPa | - | - | - | - |
| 1777471127 | 19.44° C | 39% | 968.3 hPa | - | - | - | - |
| 1777470227 | 20° C | 40% | 968.3 hPa | - | - | - | - |
| 1777469327 | 20° C | 41% | 968.3 hPa | - | - | - | - |
| 1777468427 | 20° C | 41% | 968.2 hPa | - | - | - | - |
| 1777467527 | 19.44° C | 43% | 968.5 hPa | - | - | - | - |
| 1777466627 | 20.56° C | 42% | 968.3 hPa | - | - | - | - |
| 1777465727 | 19.44° C | 44% | 968.4 hPa | - | - | - | - |
| 1777464827 | 19.44° C | 44% | 968.3 hPa | - | - | - | - |
| 1777463927 | 19.44° C | 43% | 968.4 hPa | - | - | - | - |
| 1777463027 | 18.89° C | 44% | 968.4 hPa | - | - | - | - |
| 1777462127 | 18.89° C | 43% | 968.7 hPa | - | - | - | - |
| 1777461226 | 18.89° C | 43% | 968.7 hPa | - | - | - | - |
| 1777460326 | 19.44° C | 43% | 968.8 hPa | - | - | - | - |
| 1777459426 | 18.89° C | 43% | 968.7 hPa | - | - | - | - |
| 1777458526 | 18.89° C | 42% | 968.9 hPa | - | - | - | - |
| 1777457626 | 19.44° C | 40% | 968.9 hPa | - | - | - | - |
| 1777456726 | 21.67° C | 37% | 968.7 hPa | - | - | - | - |
| 1777455826 | 21.67° C | 37% | 968.8 hPa | - | - | - | - |
* Rain since midnight (hover to see other rain measurements)
** Current wind speed in m/s (hover to see current wind gust speed)